Pilot Point, Alaska
Current Conditions -  °F | °C
As of 1:56 AM on Thursday 23 Oct 2014 (Local Time) from PAPN Reporting Station
Few Clouds Few Clouds  
Wind Chill: 17°   Ceiling: Unl
Heat Index: 27°   Visibility: 10mi
Dew Point: 22°   Wind: 12mph
Humidity: 81%   Direction: 10°N
Pressure: 29.85"   Gusts: NA
Location:  57.56°N, 157.58°W
Report Text: PAPN 230956Z AUTO 01010KT 10SM FEW041 M03/M06 A2985 RMK AO2 PWINO TSNO T10271055 SLP110 $
Loading
Personal Weather Stations






























Interactive Weather Map
Tropical Storm Tracking
New forecast layout! Learn more

10-Day Weather Forecast

Advertisements
Track Severe Weather on mobile